createdAt,value
2022-11-07T00:02:11.383Z,8.60
2022-11-07T00:07:14.138Z,6.80
2022-11-07T00:12:18.080Z,8.00
2022-11-07T00:17:20.688Z,8.00
2022-11-07T00:22:23.318Z,7.60
2022-11-07T00:27:27.358Z,8.00
2022-11-07T00:32:30.116Z,8.00
2022-11-07T00:37:32.736Z,7.80
2022-11-07T00:42:36.829Z,8.60
2022-11-07T00:47:39.672Z,8.80
2022-11-07T00:52:42.341Z,7.40
2022-11-07T00:57:46.360Z,6.80
2022-11-07T01:03:09.598Z,7.20
2022-11-07T01:08:12.199Z,7.00
2022-11-07T01:13:16.597Z,8.20
2022-11-07T01:18:19.428Z,5.60
2022-11-07T01:23:22.883Z,8.40
2022-11-07T01:28:26.856Z,7.00
2022-11-07T01:33:29.587Z,9.20
2022-11-07T01:38:32.214Z,7.40
2022-11-07T01:43:46.852Z,7.00
2022-11-07T01:48:51.059Z,6.80
2022-11-07T01:53:53.814Z,6.20
2022-11-07T01:58:57.801Z,6.60
2022-11-07T02:04:00.457Z,7.00
2022-11-07T02:09:06.155Z,6.60
2022-11-07T02:14:15.730Z,8.00
2022-11-07T02:19:19.808Z,7.00
2022-11-07T02:24:26.200Z,7.00
2022-11-07T02:29:28.849Z,6.60
2022-11-07T02:34:31.495Z,7.60
2022-11-07T02:39:35.503Z,6.20
2022-11-07T02:44:40.237Z,6.40
2022-11-07T02:49:42.919Z,6.00
2022-11-07T02:54:46.887Z,6.80
2022-11-07T02:59:49.716Z,6.20
2022-11-07T03:04:52.470Z,6.00
2022-11-07T03:09:56.517Z,6.40
2022-11-07T03:14:59.317Z,5.80
2022-11-07T03:20:02.024Z,6.40
2022-11-07T03:25:06.933Z,6.00
2022-11-07T03:30:10.705Z,7.80
2022-11-07T03:35:13.331Z,6.60
2022-11-07T03:40:17.584Z,6.00
2022-11-07T03:45:20.373Z,6.80
2022-11-07T03:50:23.008Z,6.40
2022-11-07T03:55:27.036Z,7.00
2022-11-07T04:00:29.727Z,5.00
2022-11-07T04:05:32.429Z,5.00
2022-11-07T04:10:36.436Z,6.00
2022-11-07T04:15:56.747Z,6.00
2022-11-07T04:20:59.350Z,7.80
2022-11-07T04:26:21.015Z,5.80
2022-11-07T04:31:25.743Z,6.80
2022-11-07T04:36:28.366Z,5.40
2022-11-07T04:41:32.400Z,5.60
2022-11-07T04:46:35.159Z,6.00
2022-11-07T04:51:42.078Z,7.00
2022-11-07T04:56:46.060Z,6.00
2022-11-07T05:01:49.012Z,6.00
2022-11-07T05:06:51.740Z,7.20
2022-11-07T05:11:55.954Z,6.60
2022-11-07T05:16:58.577Z,6.40
2022-11-07T05:22:18.628Z,6.00
2022-11-07T05:27:22.714Z,5.00
2022-11-07T05:32:25.366Z,5.40
2022-11-07T05:37:28.022Z,6.80
2022-11-07T05:42:32.064Z,6.00
2022-11-07T05:47:34.688Z,6.40
2022-11-07T05:52:37.375Z,6.00
2022-11-07T05:57:41.428Z,6.00
2022-11-07T06:02:44.186Z,6.00
2022-11-07T06:07:46.926Z,5.60
2022-11-07T06:12:59.678Z,5.60
2022-11-07T06:18:02.493Z,4.20
2022-11-07T06:23:05.906Z,6.20
2022-11-07T06:28:11.175Z,5.20
2022-11-07T06:33:15.341Z,7.00
2022-11-07T06:38:18.294Z,6.00
2022-11-07T06:43:22.329Z,6.00
2022-11-07T06:48:24.934Z,6.20
2022-11-07T06:53:28.788Z,3.80
2022-11-07T06:58:32.797Z,3.80
2022-11-07T07:03:35.398Z,5.20
2022-11-07T07:08:38.180Z,6.00
2022-11-07T07:13:42.355Z,5.40
2022-11-07T07:18:45.020Z,6.20
2022-11-07T07:23:47.690Z,5.80
2022-11-07T07:28:51.705Z,5.20
2022-11-07T07:33:54.422Z,5.60
2022-11-07T07:38:57.042Z,5.20
2022-11-07T07:44:01.076Z,3.80
2022-11-07T07:49:03.704Z,6.00
2022-11-07T07:54:06.470Z,5.40
2022-11-07T07:59:10.542Z,5.20
2022-11-07T08:04:13.187Z,2.80
2022-11-07T08:09:18.284Z,3.80
2022-11-07T08:14:22.383Z,6.60
2022-11-07T08:19:25.009Z,3.40
2022-11-07T08:24:27.697Z,6.40
2022-11-07T08:29:31.846Z,4.60
2022-11-07T08:34:34.490Z,6.00
2022-11-07T08:39:37.089Z,5.00
2022-11-07T08:44:45.073Z,4.80
2022-11-07T08:49:47.712Z,5.00
2022-11-07T08:54:50.303Z,5.00
2022-11-07T08:59:54.607Z,4.00
2022-11-07T09:04:57.281Z,5.00
2022-11-07T09:09:59.892Z,5.00
2022-11-07T09:15:04.215Z,5.60
2022-11-07T09:20:08.254Z,3.60
2022-11-07T09:25:11.289Z,4.00
2022-11-07T09:30:15.494Z,4.60
2022-11-07T09:35:18.350Z,3.60
2022-11-07T09:40:25.454Z,4.00
2022-11-07T09:45:29.668Z,3.80
2022-11-07T09:50:33.154Z,2.80
2022-11-07T09:55:37.383Z,3.80
2022-11-07T10:00:41.450Z,4.40
2022-11-07T10:05:51.343Z,2.00
2022-11-07T10:10:56.394Z,5.00
2022-11-07T10:16:04.887Z,3.00
2022-11-07T10:21:38.772Z,2.00
2022-11-07T10:26:32.024Z,3.20
2022-11-07T10:31:39.528Z,3.60
2022-11-07T10:36:42.205Z,4.00
2022-11-07T10:41:46.145Z,3.00
2022-11-07T10:46:53.412Z,3.40
2022-11-07T10:52:07.097Z,3.40
2022-11-07T10:57:12.880Z,2.80
2022-11-07T11:02:21.212Z,3.00
2022-11-07T11:07:28.573Z,5.00
2022-11-07T11:12:34.351Z,2.60
2022-11-07T11:17:39.162Z,3.00
2022-11-07T11:22:42.612Z,5.00
2022-11-07T11:27:45.336Z,5.00
2022-11-07T11:32:51.419Z,3.00
2022-11-07T11:37:57.923Z,4.40
2022-11-07T11:43:01.670Z,3.80
2022-11-07T11:48:12.966Z,4.20
2022-11-07T11:53:17.197Z,5.00
2022-11-07T11:58:27.171Z,5.00
2022-11-07T12:03:48.790Z,4.00
2022-11-07T12:09:17.363Z,2.20
2022-11-07T12:14:49.617Z,2.40
2022-11-07T12:19:58.230Z,3.00
2022-11-07T12:25:03.160Z,5.00
2022-11-07T12:30:10.272Z,2.60
2022-11-07T12:35:27.734Z,5.00
2022-11-07T12:40:33.277Z,3.80
2022-11-07T12:45:46.655Z,3.00
2022-11-07T12:50:53.607Z,5.00
2022-11-07T12:55:58.433Z,4.00
2022-11-07T13:01:01.109Z,2.80
2022-11-07T13:06:08.293Z,3.60
2022-11-07T13:11:14.753Z,2.00
2022-11-07T13:16:25.349Z,3.80
2022-11-07T13:21:29.387Z,3.00
2022-11-07T13:26:48.188Z,3.40
2022-11-07T13:31:57.024Z,3.00
2022-11-07T13:37:02.769Z,2.20
2022-11-07T13:42:05.521Z,5.00
2022-11-07T13:47:10.729Z,3.00
2022-11-07T13:52:18.315Z,3.00
2022-11-07T13:57:24.537Z,3.00
2022-11-07T14:02:28.272Z,2.20
2022-11-07T14:07:34.834Z,2.60
2022-11-07T14:12:38.038Z,2.00
2022-11-07T14:17:40.684Z,5.00
2022-11-07T14:22:51.200Z,3.80
2022-11-07T14:27:53.905Z,2.40
2022-11-07T14:32:57.507Z,1.60
2022-11-07T14:38:09.012Z,4.20
2022-11-07T14:43:12.832Z,2.80
2022-11-07T14:48:16.642Z,4.20
2022-11-07T14:53:23.230Z,2.80
2022-11-07T14:58:26.581Z,3.00
2022-11-07T15:03:32.162Z,3.40
2022-11-07T15:08:36.898Z,2.40
2022-11-07T15:13:39.637Z,3.00
2022-11-07T15:18:43.387Z,3.00
2022-11-07T15:23:47.387Z,3.00
2022-11-07T15:28:51.046Z,2.20
2022-11-07T15:33:53.986Z,2.00
2022-11-07T15:39:00.405Z,2.00
2022-11-07T15:44:03.207Z,2.40
2022-11-07T15:49:06.185Z,2.00
2022-11-07T15:54:12.667Z,2.40
2022-11-07T15:59:18.613Z,1.60
2022-11-07T16:04:21.614Z,2.00
2022-11-07T16:09:33.334Z,2.20
2022-11-07T16:14:44.191Z,2.00
2022-11-07T16:19:47.442Z,2.00
2022-11-07T16:24:51.401Z,1.00
2022-11-07T16:29:54.061Z,2.40
2022-11-07T16:34:56.708Z,2.60
2022-11-07T16:40:00.759Z,1.20
2022-11-07T16:45:03.469Z,1.60
2022-11-07T16:50:06.902Z,2.00
2022-11-07T16:55:17.043Z,2.00
2022-11-07T17:00:21.202Z,4.20
2022-11-07T17:05:23.865Z,2.80
2022-11-07T17:10:27.913Z,2.40
2022-11-07T17:15:30.594Z,2.00
2022-11-07T17:21:03.495Z,3.00
2022-11-07T17:25:59.573Z,5.00
2022-11-07T17:31:02.245Z,6.00
2022-11-07T17:36:05.766Z,7.00
2022-11-07T17:41:18.054Z,7.60
2022-11-07T17:46:21.760Z,6.00
2022-11-07T17:51:26.538Z,6.00
2022-11-07T17:56:31.215Z,6.40
2022-11-07T18:01:34.857Z,7.00
2022-11-07T18:06:38.326Z,6.40
2022-11-07T18:11:42.395Z,6.40
2022-11-07T18:16:45.024Z,7.00
2022-11-07T18:21:47.769Z,6.20
2022-11-07T18:26:51.921Z,7.00
2022-11-07T18:31:54.736Z,6.80
2022-11-07T18:36:57.565Z,7.60
2022-11-07T18:42:02.852Z,10.20
2022-11-07T18:47:05.649Z,6.00
2022-11-07T18:52:08.354Z,6.40
2022-11-07T18:57:12.538Z,6.20
2022-11-07T19:02:15.518Z,6.60
2022-11-07T19:07:18.215Z,6.00
2022-11-07T19:12:22.310Z,6.00
2022-11-07T19:17:26.597Z,5.20
2022-11-07T19:22:29.273Z,3.00
2022-11-07T19:27:34.748Z,6.20
2022-11-07T19:32:37.416Z,3.20
2022-11-07T19:37:40.042Z,4.00
2022-11-07T19:42:44.030Z,7.20
2022-11-07T19:47:46.879Z,6.00
2022-11-07T19:52:49.615Z,6.00
2022-11-07T19:57:53.715Z,5.60
2022-11-07T20:02:56.359Z,4.00
2022-11-07T20:08:03.761Z,3.80
2022-11-07T20:13:09.124Z,4.60
2022-11-07T20:18:11.803Z,5.80
2022-11-07T20:23:14.651Z,3.40
2022-11-07T20:28:18.946Z,6.00
2022-11-07T20:33:21.649Z,3.60
2022-11-07T20:38:24.334Z,8.20
2022-11-07T20:43:30.753Z,4.80
2022-11-07T20:48:33.791Z,3.60
2022-11-07T20:53:37.996Z,4.00
2022-11-07T20:58:42.847Z,4.40
2022-11-07T21:03:45.553Z,4.40
2022-11-07T21:08:50.171Z,7.00
2022-11-07T21:13:54.311Z,4.00
2022-11-07T21:18:57.242Z,6.60
2022-11-07T21:24:00.038Z,4.00
2022-11-07T21:29:05.880Z,4.40
2022-11-07T21:34:09.551Z,4.00
2022-11-07T21:39:12.442Z,4.00
2022-11-07T21:44:16.448Z,4.80
2022-11-07T21:49:19.077Z,5.20
2022-11-07T21:54:21.906Z,4.00
2022-11-07T21:59:25.998Z,3.60
2022-11-07T22:04:28.614Z,3.80
2022-11-07T22:09:31.246Z,4.40
2022-11-07T22:14:35.328Z,6.00
2022-11-07T22:19:37.995Z,4.20
2022-11-07T22:24:40.613Z,6.00
2022-11-07T22:29:44.619Z,5.20
2022-11-07T22:34:47.311Z,5.20
2022-11-07T22:39:49.942Z,4.00
2022-11-07T22:44:53.920Z,6.80
2022-11-07T22:49:56.523Z,3.60
2022-11-07T22:54:59.202Z,4.00
2022-11-07T23:00:20.109Z,4.00
2022-11-07T23:05:23.915Z,6.60
2022-11-07T23:10:26.721Z,6.00
2022-11-07T23:15:31.598Z,4.00
2022-11-07T23:20:51.691Z,4.00
2022-11-07T23:25:54.278Z,4.40
2022-11-07T23:30:58.186Z,6.00
2022-11-07T23:36:01.162Z,4.00
2022-11-07T23:41:04.091Z,6.00
2022-11-07T23:46:25.766Z,4.40
2022-11-07T23:51:28.475Z,3.40
2022-11-07T23:56:31.132Z,5.20
